Time,TemperatureF,DewpointF,PressureIn,WindDirection,WindDirectionDegrees,WindSpeedMPH,WindSpeedGustMPH,Humidity,HourlyPrecipIn,Conditions,Clouds,dailyrainin,SoftwareType,DateUTC
2013-03-31 00:09:00,48.0,1.0,30.11,ESE,118,5.0,9.0,14,0.00,CLR,,0.00,WeatherDisplay:10.37,2013-03-31 04:09:00,
2013-03-31 00:19:00,48.6,1.4,30.11,ESE,121,5.0,8.0,14,0.00,CLR,,0.00,WeatherDisplay:10.37,2013-03-31 04:19:00,
2013-03-31 00:29:00,49.1,1.9,30.11,SE,128,5.0,9.0,14,0.00,CLR,,0.00,WeatherDisplay:10.37,2013-03-31 04:29:00,
2013-03-31 00:39:00,49.5,2.2,30.11,SE,140,8.0,12.0,14,0.00,CLR,,0.00,WeatherDisplay:10.37,2013-03-31 04:39:00,
2013-03-31 00:49:00,49.6,2.3,30.11,SE,143,6.0,14.0,14,0.00,CLR,,0.00,WeatherDisplay:10.37,2013-03-31 04:49:00,
2013-03-31 00:59:00,50.0,2.6,30.11,SSE,151,9.0,15.0,14,0.00,CLR,,0.00,WeatherDisplay:10.37,2013-03-31 04:59:00,
2013-03-31 01:09:00,49.8,2.4,30.11,SSE,151,10.0,15.0,14,0.00,CLR,,0.00,WeatherDisplay:10.37,2013-03-31 05:09:00,
2013-03-31 01:19:00,49.8,2.4,30.11,SSE,148,8.0,12.0,14,0.00,CLR,,0.00,WeatherDisplay:10.37,2013-03-31 05:19:00,
2013-03-31 01:29:00,49.8,2.4,30.11,SSE,152,7.0,13.0,14,0.00,CLR,,0.00,WeatherDisplay:10.37,2013-03-31 05:29:00,
2013-03-31 01:39:00,49.8,5.3,30.11,SSE,152,12.0,15.0,16,0.00,CLR,,0.00,WeatherDisplay:10.37,2013-03-31 05:39:00,
2013-03-31 01:49:00,49.6,5.2,30.11,SSE,148,14.0,19.0,16,0.00,CLR,,0.00,WeatherDisplay:10.37,2013-03-31 05:49:00,
2013-03-31 01:59:00,49.2,4.8,30.08,SSE,154,8.0,15.0,16,0.00,CLR,,0.00,WeatherDisplay:10.37,2013-03-31 05:59:00,
2013-03-31 02:09:00,48.9,4.6,30.08,SSE,148,7.0,13.0,16,0.00,CLR,,0.00,WeatherDisplay:10.37,2013-03-31 06:09:00,
2013-03-31 02:19:00,48.7,4.5,30.08,SSE,156,7.0,14.0,16,0.00,CLR,,0.00,WeatherDisplay:10.37,2013-03-31 06:19:00,
2013-03-31 02:29:00,48.6,4.3,30.08,SSE,152,8.0,18.0,16,0.00,CLR,,0.00,WeatherDisplay:10.37,2013-03-31 06:29:00,
2013-03-31 02:39:00,48.7,4.5,30.08,SSE,151,8.0,18.0,16,0.00,CLR,,0.00,WeatherDisplay:10.37,2013-03-31 06:39:00,
2013-03-31 02:49:00,48.6,4.3,30.08,SSE,149,12.0,17.0,16,0.00,CLR,,0.00,WeatherDisplay:10.37,2013-03-31 06:49:00,
2013-03-31 02:59:00,48.4,4.2,30.08,SE,144,6.0,17.0,16,0.00,CLR,,0.00,WeatherDisplay:10.37,2013-03-31 06:59:00,
2013-03-31 03:09:00,48.3,4.1,30.08,SSE,152,10.0,18.0,16,0.00,CLR,,0.00,WeatherDisplay:10.37,2013-03-31 07:09:00,
2013-03-31 03:19:00,48.0,5.2,30.08,SSE,150,10.0,17.0,17,0.00,CLR,,0.00,WeatherDisplay:10.37,2013-03-31 07:19:00,
2013-03-31 03:29:00,47.8,5.0,30.05,SSE,148,8.0,15.0,17,0.00,CLR,,0.00,WeatherDisplay:10.37,2013-03-31 07:29:00,
2013-03-31 03:39:00,47.5,4.8,30.05,SE,137,10.0,17.0,17,0.00,CLR,,0.00,WeatherDisplay:10.37,2013-03-31 07:39:00,
2013-03-31 03:49:00,47.3,4.6,30.05,SE,144,9.0,14.0,17,0.00,CLR,,0.00,WeatherDisplay:10.37,2013-03-31 07:49:00,
2013-03-31 03:59:00,46.9,6.7,30.05,SE,146,8.0,13.0,19,0.00,CLR,,0.00,WeatherDisplay:10.37,2013-03-31 07:59:00,
2013-03-31 04:09:00,46.6,6.4,30.05,SE,135,10.0,17.0,19,0.00,CLR,,0.00,WeatherDisplay:10.37,2013-03-31 08:09:00,
2013-03-31 04:19:00,46.3,7.4,30.05,SE,125,10.0,16.0,20,0.00,CLR,,0.00,WeatherDisplay:10.37,2013-03-31 08:19:00,
2013-03-31 04:29:00,45.5,6.7,30.02,SE,127,12.0,17.0,20,0.00,CLR,,0.00,WeatherDisplay:10.37,2013-03-31 08:29:00,
2013-03-31 04:39:00,45.5,8.8,30.02,SE,135,9.0,15.0,22,0.00,CLR,,0.00,WeatherDisplay:10.37,2013-03-31 08:39:00,
2013-03-31 04:49:00,45.7,8.9,30.02,SE,137,8.0,15.0,22,0.00,CLR,,0.00,WeatherDisplay:10.37,2013-03-31 08:49:00,
2013-03-31 04:59:00,45.3,8.6,30.02,SE,127,10.0,15.0,22,0.00,CLR,,0.00,WeatherDisplay:10.37,2013-03-31 08:59:00,
2013-03-31 05:09:00,45.2,11.4,30.02,SE,127,9.0,15.0,25,0.00,CLR,,0.00,WeatherDisplay:10.37,2013-03-31 09:09:00,
2013-03-31 05:19:00,45.0,11.2,30.02,SE,129,10.0,17.0,25,0.00,CLR,,0.00,WeatherDisplay:10.37,2013-03-31 09:19:00,
2013-03-31 05:29:00,45.0,11.2,30.02,SE,127,12.0,17.0,25,0.00,CLR,,0.00,WeatherDisplay:10.37,2013-03-31 09:29:00,
2013-03-31 05:39:00,44.8,12.8,29.99,SE,128,10.0,15.0,27,0.00,CLR,,0.00,WeatherDisplay:10.37,2013-03-31 09:39:00,
2013-03-31 05:49:00,44.8,12.8,29.99,SE,130,9.0,15.0,27,0.00,CLR,,0.00,WeatherDisplay:10.37,2013-03-31 09:49:00,
2013-03-31 05:59:00,44.6,13.5,29.99,SE,129,8.0,15.0,28,0.00,CLR,,0.00,WeatherDisplay:10.37,2013-03-31 09:59:00,
2013-03-31 06:09:00,44.6,13.5,29.99,ESE,123,8.0,13.0,28,0.00,CLR,,0.00,WeatherDisplay:10.37,2013-03-31 10:09:00,
2013-03-31 06:19:00,44.8,13.6,29.99,SE,124,9.0,15.0,28,0.00,CLR,,0.00,WeatherDisplay:10.37,2013-03-31 10:19:00,
2013-03-31 06:29:00,44.5,13.4,29.99,SE,124,9.0,15.0,28,0.00,CLR,,0.00,WeatherDisplay:10.37,2013-03-31 10:29:00,
2013-03-31 06:39:00,44.6,13.5,29.99,SE,128,9.0,15.0,28,0.00,CLR,,0.00,WeatherDisplay:10.37,2013-03-31 10:39:00,
2013-03-31 06:49:00,44.6,14.3,29.99,SE,133,8.0,15.0,29,0.00,CLR,,0.00,WeatherDisplay:10.37,2013-03-31 10:49:00,
2013-03-31 06:59:00,44.6,14.3,29.99,SE,136,7.0,17.0,29,0.00,CLR,,0.00,WeatherDisplay:10.37,2013-03-31 10:59:00,
2013-03-31 07:09:00,44.8,13.6,29.99,SE,126,10.0,15.0,28,0.00,CLR,,0.00,WeatherDisplay:10.37,2013-03-31 11:09:00,
2013-03-31 07:19:00,44.8,13.6,29.99,SE,135,8.0,17.0,28,0.00,CLR,,0.00,WeatherDisplay:10.37,2013-03-31 11:19:00,
2013-03-31 07:29:00,44.8,13.6,29.99,SE,134,10.0,15.0,28,0.00,CLR,,0.00,WeatherDisplay:10.37,2013-03-31 11:29:00,
2013-03-31 07:39:00,44.8,13.6,29.99,SE,131,9.0,13.0,28,0.00,CLR,,0.00,WeatherDisplay:10.37,2013-03-31 11:39:00,
2013-03-31 07:49:00,44.8,13.6,29.99,SE,133,7.0,12.0,28,0.00,CLR,,0.00,WeatherDisplay:10.37,2013-03-31 11:49:00,
2013-03-31 07:59:00,44.8,14.4,29.96,SE,129,3.0,10.0,29,0.00,CLR,,0.00,WeatherDisplay:10.37,2013-03-31 11:59:00,
2013-03-31 08:09:00,45.0,14.6,29.99,SE,140,6.0,15.0,29,0.00,CLR,,0.00,WeatherDisplay:10.37,2013-03-31 12:09:00,
2013-03-31 08:19:00,45.3,14.9,29.99,SSE,168,8.0,10.0,29,0.00,CLR,,0.00,WeatherDisplay:10.37,2013-03-31 12:19:00,
2013-03-31 08:29:00,45.3,14.9,29.99,SE,137,7.0,11.0,29,0.00,CLR,,0.00,WeatherDisplay:10.37,2013-03-31 12:29:00,
2013-03-31 08:39:00,45.3,15.7,29.99,SSE,149,3.0,8.0,30,0.00,CLR,,0.00,WeatherDisplay:10.37,2013-03-31 12:39:00,
2013-03-31 08:49:00,45.5,15.8,29.99,SE,135,7.0,9.0,30,0.00,CLR,,0.00,WeatherDisplay:10.37,2013-03-31 12:49:00,
2013-03-31 08:59:00,45.7,16.0,29.99,ESE,118,5.0,9.0,30,0.00,CLR,,0.00,WeatherDisplay:10.37,2013-03-31 12:59:00,
2013-03-31 09:09:00,45.9,16.9,29.99,SE,129,5.0,11.0,31,0.00,CLR,,0.00,WeatherDisplay:10.37,2013-03-31 13:09:00,
2013-03-31 09:19:00,46.0,17.0,29.99,SE,124,5.0,10.0,31,0.00,CLR,,0.00,WeatherDisplay:10.37,2013-03-31 13:19:00,
2013-03-31 09:29:00,46.3,17.3,29.99,SE,128,3.0,11.0,31,0.00,CLR,,0.00,WeatherDisplay:10.37,2013-03-31 13:29:00,
2013-03-31 09:39:00,46.6,17.5,29.96,ESE,106,5.0,8.0,31,0.00,CLR,,0.00,WeatherDisplay:10.37,2013-03-31 13:39:00,
2013-03-31 09:49:00,46.6,17.5,29.96,East,81,3.0,8.0,31,0.00,CLR,,0.00,WeatherDisplay:10.37,2013-03-31 13:49:00,
2013-03-31 09:59:00,46.2,20.0,29.96,East,91,3.0,6.0,35,0.00,CLR,,0.00,WeatherDisplay:10.37,2013-03-31 13:59:00,
2013-03-31 10:09:00,45.4,22.4,29.99,SE,141,6.0,8.0,40,0.00,CLR,,0.00,WeatherDisplay:10.37,2013-03-31 14:09:00,
2013-03-31 10:19:00,44.4,23.8,29.99,East,88,7.0,12.0,44,0.00,CLR,,0.00,WeatherDisplay:10.37,2013-03-31 14:19:00,
2013-03-31 10:29:00,43.7,25.3,29.96,East,94,8.0,11.0,48,0.00,CLR,,0.00,WeatherDisplay:10.37,2013-03-31 14:29:00,
2013-03-31 10:39:00,43.0,26.5,29.96,East,97,3.0,10.0,52,0.00,CLR,,0.00,WeatherDisplay:10.37,2013-03-31 14:39:00,
2013-03-31 10:49:00,43.0,26.6,29.96,ESE,112,2.0,6.0,52,0.00,CLR,,0.00,WeatherDisplay:10.37,2013-03-31 14:49:00,
2013-03-31 10:59:00,43.2,27.6,29.93,SE,146,6.0,12.0,54,0.00,CLR,,0.00,WeatherDisplay:10.37,2013-03-31 14:59:00,
2013-03-31 11:09:00,43.4,28.3,29.93,South,185,5.0,10.0,55,0.00,CLR,,0.00,WeatherDisplay:10.37,2013-03-31 15:09:00,
2013-03-31 11:19:00,43.5,28.8,29.93,SE,143,7.0,12.0,56,0.00,CLR,,0.00,WeatherDisplay:10.37,2013-03-31 15:19:00,
2013-03-31 11:29:00,43.7,29.5,29.93,SSE,147,8.0,13.0,57,0.00,CLR,,0.00,WeatherDisplay:10.37,2013-03-31 15:29:00,
2013-03-31 11:39:00,43.7,29.9,29.93,SE,134,7.0,15.0,58,0.00,CLR,,0.00,WeatherDisplay:10.37,2013-03-31 15:39:00,
2013-03-31 11:49:00,43.7,30.3,29.93,SE,125,8.0,13.0,59,0.00,CLR,,0.00,WeatherDisplay:10.37,2013-03-31 15:49:00,
2013-03-31 11:59:00,43.7,31.5,29.93,SE,129,8.0,13.0,62,0.05,RA,,0.05,WeatherDisplay:10.37,2013-03-31 15:59:00,
2013-03-31 12:09:00,43.7,32.3,29.93,SSE,148,7.0,13.0,64,0.00,CLR,,0.05,WeatherDisplay:10.37,2013-03-31 16:09:00,
2013-03-31 12:19:00,44.1,33.4,29.93,South,171,6.0,11.0,66,0.00,CLR,,0.05,WeatherDisplay:10.37,2013-03-31 16:19:00,
2013-03-31 12:29:00,44.2,34.3,29.90,SE,130,7.0,8.0,68,0.05,RA,,0.10,WeatherDisplay:10.37,2013-03-31 16:29:00,
2013-03-31 12:39:00,44.4,35.2,29.90,East,92,6.0,6.0,70,0.00,CLR,,0.10,WeatherDisplay:10.37,2013-03-31 16:39:00,
2013-03-31 12:49:00,44.4,36.0,29.90,ESE,119,7.0,10.0,72,0.00,CLR,,0.10,WeatherDisplay:10.37,2013-03-31 16:49:00,
2013-03-31 12:59:00,44.6,36.8,29.90,ESE,110,9.0,13.0,74,0.00,CLR,,0.10,WeatherDisplay:10.37,2013-03-31 16:59:00,
2013-03-31 13:09:00,44.4,37.0,29.87,ESE,112,8.0,13.0,75,0.00,CLR,,0.10,WeatherDisplay:10.37,2013-03-31 17:09:00,
2013-03-31 13:19:00,44.6,37.8,29.87,ESE,109,6.0,11.0,77,0.05,RA,,0.15,WeatherDisplay:10.37,2013-03-31 17:19:00,
2013-03-31 13:29:00,44.9,37.8,29.87,ESE,107,7.0,15.0,76,0.00,CLR,,0.15,WeatherDisplay:10.37,2013-03-31 17:29:00,
2013-03-31 13:39:00,45.0,37.8,29.87,ESE,117,7.0,11.0,76,0.00,CLR,,0.15,WeatherDisplay:10.37,2013-03-31 17:39:00,
2013-03-31 13:49:00,45.3,38.2,29.87,SE,125,6.0,8.0,76,0.00,CLR,,0.15,WeatherDisplay:10.37,2013-03-31 17:49:00,
2013-03-31 13:59:00,45.3,38.5,29.84,SSE,150,5.0,9.0,77,0.00,CLR,,0.15,WeatherDisplay:10.37,2013-03-31 17:59:00,
2013-03-31 14:09:00,45.3,38.5,29.84,SW,225,2.0,8.0,77,0.00,CLR,,0.15,WeatherDisplay:10.37,2013-03-31 18:09:00,
2013-03-31 14:19:00,45.5,38.7,29.84,SSE,164,0.0,8.0,77,0.00,CLR,,0.15,WeatherDisplay:10.37,2013-03-31 18:19:00,
2013-03-31 14:29:00,45.5,38.7,29.84,SSE,160,5.0,6.0,77,0.00,CLR,,0.15,WeatherDisplay:10.37,2013-03-31 18:29:00,
2013-03-31 14:39:00,45.7,38.9,29.81,SE,142,3.0,6.0,77,0.00,CLR,,0.15,WeatherDisplay:10.37,2013-03-31 18:39:00,
2013-03-31 14:49:00,46.0,39.6,29.81,SE,132,5.0,8.0,78,0.00,CLR,,0.15,WeatherDisplay:10.37,2013-03-31 18:49:00,
2013-03-31 14:59:00,46.2,39.7,29.81,SE,134,5.0,8.0,78,0.00,CLR,,0.15,WeatherDisplay:10.37,2013-03-31 18:59:00,
2013-03-31 15:09:00,46.4,40.2,29.78,SSW,197,5.0,11.0,79,0.00,CLR,,0.15,WeatherDisplay:10.37,2013-03-31 19:09:00,
2013-03-31 15:19:00,46.4,40.6,29.78,SW,232,3.0,8.0,80,0.00,CLR,,0.15,WeatherDisplay:10.37,2013-03-31 19:19:00,
2013-03-31 15:39:00,46.6,40.7,29.81,West,265,0.0,6.0,80,0.00,CLR,,0.15,WeatherDisplay:10.37,2013-03-31 19:39:00,
2013-03-31 15:49:00,46.6,40.7,29.81,West,278,3.0,6.0,80,0.00,CLR,,0.15,WeatherDisplay:10.37,2013-03-31 19:49:00,
2013-03-31 15:59:00,46.6,40.7,29.81,NNW,329,0.0,0.0,80,0.00,CLR,,0.15,WeatherDisplay:10.37,2013-03-31 19:59:00,
2013-03-31 16:09:00,46.6,40.7,29.81,West,269,0.0,0.0,80,0.00,CLR,,0.15,WeatherDisplay:10.37,2013-03-31 20:09:00,
2013-03-31 16:19:00,46.6,40.8,29.81,West,280,0.0,0.0,80,0.00,CLR,,0.15,WeatherDisplay:10.37,2013-03-31 20:19:00,
2013-03-31 16:29:00,46.8,40.9,29.81,West,280,0.0,0.0,80,0.00,CLR,,0.15,WeatherDisplay:10.37,2013-03-31 20:29:00,
2013-03-31 16:39:00,46.8,40.9,29.78,NNW,330,0.0,0.0,80,0.00,CLR,,0.15,WeatherDisplay:10.37,2013-03-31 20:39:00,
2013-03-31 16:49:00,46.9,41.1,29.78,SW,231,0.0,0.0,80,0.00,CLR,,0.15,WeatherDisplay:10.37,2013-03-31 20:49:00,
2013-03-31 16:59:00,47.1,41.3,29.78,SW,214,0.0,0.0,80,0.00,CLR,,0.15,WeatherDisplay:10.37,2013-03-31 20:59:00,
2013-03-31 17:09:00,47.3,41.8,29.78,West,261,3.0,5.0,81,0.00,CLR,,0.15,WeatherDisplay:10.37,2013-03-31 21:09:00,
2013-03-31 17:19:00,47.3,41.8,29.78,WNW,289,0.0,4.0,81,0.00,CLR,,0.15,WeatherDisplay:10.37,2013-03-31 21:19:00,
2013-03-31 17:29:00,47.3,41.8,29.78,West,272,0.0,3.0,81,0.00,CLR,,0.15,WeatherDisplay:10.37,2013-03-31 21:29:00,
2013-03-31 17:39:00,47.5,41.9,29.78,West,272,0.0,0.0,81,0.00,CLR,,0.15,WeatherDisplay:10.37,2013-03-31 21:39:00,
2013-03-31 17:49:00,47.5,42.3,29.78,WNW,284,0.0,0.0,82,0.00,CLR,,0.15,WeatherDisplay:10.37,2013-03-31 21:49:00,
2013-03-31 17:59:00,47.7,42.5,29.78,NW,326,0.0,0.0,82,0.00,CLR,,0.15,WeatherDisplay:10.37,2013-03-31 21:59:00,
2013-03-31 18:09:00,47.8,42.6,29.78,WSW,257,0.0,3.0,82,0.00,CLR,,0.15,WeatherDisplay:10.37,2013-03-31 22:09:00,
2013-03-31 18:19:00,47.8,42.6,29.78,WNW,282,2.0,4.0,82,0.00,CLR,,0.15,WeatherDisplay:10.37,2013-03-31 22:19:00,
2013-03-31 18:29:00,47.8,42.6,29.78,WNW,291,2.0,6.0,82,0.00,CLR,,0.15,WeatherDisplay:10.37,2013-03-31 22:29:00,
2013-03-31 18:39:00,47.7,42.8,29.78,WNW,298,2.0,5.0,83,0.00,CLR,,0.15,WeatherDisplay:10.37,2013-03-31 22:39:00,
2013-03-31 18:49:00,47.8,42.9,29.78,WNW,302,3.0,6.0,83,0.00,CLR,,0.15,WeatherDisplay:10.37,2013-03-31 22:49:00,
2013-03-31 18:59:00,47.5,42.6,29.78,WNW,287,2.0,4.0,83,0.00,CLR,,0.15,WeatherDisplay:10.37,2013-03-31 22:59:00,
2013-03-31 19:09:00,47.5,42.6,29.78,NW,322,2.0,3.0,83,0.00,CLR,,0.15,WeatherDisplay:10.37,2013-03-31 23:09:00,
2013-03-31 19:19:00,47.3,42.4,29.78,NW,323,0.0,3.0,83,0.00,CLR,,0.15,WeatherDisplay:10.37,2013-03-31 23:19:00,
2013-03-31 19:29:00,47.3,42.4,29.78,NW,323,0.0,0.0,83,0.00,CLR,,0.15,WeatherDisplay:10.37,2013-03-31 23:29:00,
2013-03-31 19:39:00,47.1,42.2,29.78,NW,323,0.0,0.0,83,0.00,CLR,,0.15,WeatherDisplay:10.37,2013-03-31 23:39:00,
2013-03-31 19:49:00,47.1,42.2,29.78,NW,323,0.0,0.0,83,0.00,CLR,,0.15,WeatherDisplay:10.37,2013-03-31 23:49:00,
2013-03-31 19:59:00,46.9,42.4,29.78,NW,323,0.0,0.0,84,0.00,CLR,,0.15,WeatherDisplay:10.37,2013-03-31 23:59:00,
2013-03-31 20:09:00,46.9,42.4,29.78,SSW,210,0.0,0.0,84,0.00,CLR,,0.15,WeatherDisplay:10.37,2013-04-01 00:09:00,
2013-03-31 20:19:00,46.9,42.4,29.78,South,188,0.0,0.0,84,0.00,CLR,,0.15,WeatherDisplay:10.37,2013-04-01 00:19:00,
2013-03-31 20:29:00,46.9,42.4,29.78,South,188,0.0,0.0,84,0.00,CLR,,0.15,WeatherDisplay:10.37,2013-04-01 00:29:00,
2013-03-31 20:39:00,46.8,41.9,29.78,ESE,122,0.0,0.0,83,0.00,CLR,,0.15,WeatherDisplay:10.37,2013-04-01 00:39:00,
2013-03-31 20:49:00,46.6,41.7,29.78,ESE,122,0.0,0.0,83,0.00,CLR,,0.15,WeatherDisplay:10.37,2013-04-01 00:49:00,
2013-03-31 20:59:00,46.4,41.8,29.78,ESE,122,0.0,0.0,84,0.00,CLR,,0.15,WeatherDisplay:10.37,2013-04-01 00:59:00,
2013-03-31 21:09:00,46.4,41.8,29.81,ESE,122,0.0,0.0,84,0.05,RA,,0.20,WeatherDisplay:10.37,2013-04-01 01:09:00,
2013-03-31 21:19:00,46.2,41.3,29.81,ESE,122,0.0,0.0,83,0.00,CLR,,0.20,WeatherDisplay:10.37,2013-04-01 01:19:00,
2013-03-31 21:29:00,45.7,40.8,29.81,ESE,122,0.0,0.0,83,0.00,CLR,,0.20,WeatherDisplay:10.37,2013-04-01 01:29:00,
2013-03-31 21:39:00,44.3,39.1,29.78,ESE,122,0.0,0.0,82,0.00,CLR,,0.20,WeatherDisplay:10.37,2013-04-01 01:39:00,
2013-03-31 21:49:00,43.3,38.2,29.78,ESE,122,0.0,0.0,82,0.00,CLR,,0.20,WeatherDisplay:10.37,2013-04-01 01:49:00,
2013-03-31 21:59:00,43.1,37.9,29.81,NE,35,0.0,0.0,82,0.00,CLR,,0.20,WeatherDisplay:10.37,2013-04-01 01:59:00,
2013-03-31 22:09:00,43.9,39.1,29.78,NNE,22,0.0,0.0,83,0.00,CLR,,0.20,WeatherDisplay:10.37,2013-04-01 02:09:00,
2013-03-31 22:19:00,43.7,38.6,29.78,NNE,22,0.0,0.0,82,0.00,CLR,,0.20,WeatherDisplay:10.37,2013-04-01 02:19:00,
2013-03-31 22:29:00,43.7,38.6,29.81,NNE,22,0.0,0.0,82,0.00,CLR,,0.20,WeatherDisplay:10.37,2013-04-01 02:29:00,
2013-03-31 22:39:00,43.1,38.0,29.81,NNE,25,0.0,0.0,82,0.00,CLR,,0.20,WeatherDisplay:10.37,2013-04-01 02:39:00,
2013-03-31 22:49:00,42.4,37.3,29.81,NE,39,0.0,0.0,82,0.00,CLR,,0.20,WeatherDisplay:10.37,2013-04-01 02:49:00,
2013-03-31 22:59:00,42.8,38.0,29.81,NE,39,0.0,0.0,83,0.00,CLR,,0.20,WeatherDisplay:10.37,2013-04-01 02:59:00,
2013-03-31 23:09:00,42.6,37.8,29.81,NE,39,0.0,0.0,83,0.00,CLR,,0.20,WeatherDisplay:10.37,2013-04-01 03:09:00,
2013-03-31 23:19:00,44.3,40.1,29.81,East,98,0.0,3.0,85,0.00,CLR,,0.20,WeatherDisplay:10.37,2013-04-01 03:19:00,
2013-03-31 23:29:00,45.5,40.9,29.78,SE,139,0.0,0.0,84,0.00,CLR,,0.20,WeatherDisplay:10.37,2013-04-01 03:29:00,
2013-03-31 23:39:00,46.0,41.5,29.78,ESE,117,0.0,0.0,84,0.00,CLR,,0.20,WeatherDisplay:10.37,2013-04-01 03:39:00,
2013-03-31 23:49:00,45.9,41.3,29.78,ESE,117,0.0,0.0,84,0.00,CLR,,0.20,WeatherDisplay:10.37,2013-04-01 03:49:00,
2013-03-31 23:59:00,46.0,41.5,29.78,ESE,117,0.0,0.0,84,0.00,RA,,0.00,WeatherDisplay:10.37,2013-04-01 03:59:00,